ABI weather

Abilene Regional Airport
Abilene, Texas, United States

Public forecast

Using degrees Fahrenheit for public forecast. Weather courtesy of forecast.io.

Current aviation weather report (METAR) for Abilene Regional Airport

Retrieved 2019/10/16 08:52 UTC (45 minutes ago):

KABI 160852Z 36013KT 10SM CLR 13/03 A3016 RMK AO2 SLP190 T01330028 51006

Aviation forecast (TAF) for Abilene Regional Airport

Retrieved 2019/10/16 06:27 UTC (3 hours ago):

TAF KABI 160525Z 1606/1706 36013KT P6SM SKC FM161100 01011KT P6SM SKC FM170000 VRB05KT P6SM SKC